Overview Statistics Trail Chart Weather Telemetry Raw packets
 

This is the latest recevied weather packets stored in our database for station/object K6CED. If no packets are shown the sender has not sent any weather packets the latest 10 day(s).

<< 19 20 21 22 23 24 25 >>
Time Temp. Humidity Pressure Rain* Wind** Luminosity Snow
1788537080 17.78° C 84% 1016.6 hPa 0 mm - 422 W/m² -
1788536779 17.78° C 83% 1016.6 hPa 0 mm - 410 W/m² -
1788536479 18.33° C 81% 1016.3 hPa 0 mm - 320 W/m² -
1788536174 17.78° C 85% 1016.4 hPa 0 mm - 270 W/m² -
1788535870 17.78° C 86% 1016.4 hPa 0 mm - 311 W/m² -
1788535566 16.67° C 88% 1016.3 hPa 0 mm - 238 W/m² -
1788535261 16.67° C 89% 1016.5 hPa 0 mm - 165 W/m² -
1788534956 16.67° C 90% 1016.4 hPa 0 mm - 152 W/m² -
1788534655 16.11° C 90% 1016.3 hPa 0 mm - 143 W/m² -
1788534350 16.11° C 91% 1016.3 hPa 0 mm - 142 W/m² -
1788534045 16.11° C 91% 1016.3 hPa 0 mm - 126 W/m² -
1788533752 16.11° C 91% 1016.2 hPa 0 mm - 127 W/m² -
1788533440 16.11° C 90% 1016.3 hPa 0 mm - 110 W/m² -
1788533136 16.11° C 91% 1016.3 hPa 0 mm - 109 W/m² -
1788532832 16.11° C 92% 1016.2 hPa 0 mm - 99 W/m² -
1788532527 16.11° C 92% 1016.1 hPa 0 mm - 83 W/m² -
1788532224 16.11° C 92% 1016.2 hPa 0 mm - 78 W/m² -
1788531920 15.56° C 92% 1016.1 hPa 0 mm - 63 W/m² -
1788531619 15.56° C 93% 1016.1 hPa 0 mm - 51 W/m² -
1788531314 15.56° C 93% 1016.3 hPa 0 mm - 42 W/m² -
1788531010 15.56° C 93% 1016 hPa 0 mm - 33 W/m² -
1788530705 15.56° C 94% 1016.1 hPa 0 mm - 29 W/m² -
1788530405 15.56° C 94% 1016.1 hPa 0 mm - 24 W/m² -
1788530098 15.56° C 94% 1015.8 hPa 0 mm - 17 W/m² -
1788529795 15.56° C 94% 1016 hPa 0 mm - 13 W/m² -

* Rain latest hour (hover to see other rain measurements)
** Current wind speed in m/s (hover to see current wind gust speed)